Preludeux — FGA7662 — position and weather

sailwx.info

Track history (hours):
 
Tides and Currents Weather Stations Pressure Air Temp Water Temp Dewpoint Dewpoint Depression Visibility Wind Speed Wind Dir Waves Ship Positions

Preludeux

Last reported at 2017-Aug-23 17:52 UTC. Time now 2017-Sep-22 08:17 UTC.
Position N 14°27' W 060°58'.
Warning: this ship's position is 29 days out of date.

Length 14 m.

Type: Sailing vessel. MMSI: 227537380.

Date/timePositionNaut miles runAvg speedWind from/ knotsBaromVisibWave heightAir tempDewpointWater temp
2017-Aug-23 17:52N 14°27' W 060°58'2 5.6
2017-Aug-23 17:30N 14°27' W 060°56'3 5.6
2017-Aug-23 17:00N 14°27' W 060°53'1 2.9
2017-Aug-23 16:29N 14°28' W 060°52'0 0.7
2017-Aug-23 15:59N 14°28' W 060°52'  
2017-Aug-13 21:42N 14°26' W 060°53'0 0.0
2017-Aug-13 21:30N 14°26' W 060°53'2 4.7
2017-Aug-13 21:00N 14°27' W 060°55'3 5.5
2017-Aug-13 20:30N 14°24' W 060°57'  
Track history (hours):
 
Tides and Currents Weather Stations Pressure Air Temp Water Temp Dewpoint Dewpoint Depression Visibility Wind Speed Wind Dir Waves Ship Positions

Preludeux

Last reported at 2017-Aug-23 17:52 UTC. Time now 2017-Sep-22 08:17 UTC.
Position N 14°27' W 060°58'.
Warning: this ship's position is 29 days out of date.

Length 14 m.

Type: Sailing vessel. MMSI: 227537380.

Date/timePositionNaut miles runAvg speedWind from/ knotsBaromVisibWave heightAir tempDewpointWater temp
2017-Aug-23 17:52N 14°27' W 060°58'2 5.6
2017-Aug-23 17:30N 14°27' W 060°56'3 5.6
2017-Aug-23 17:00N 14°27' W 060°53'1 2.9
2017-Aug-23 16:29N 14°28' W 060°52'0 0.7
2017-Aug-23 15:59N 14°28' W 060°52'  
2017-Aug-13 21:42N 14°26' W 060°53'0 0.0
2017-Aug-13 21:30N 14°26' W 060°53'2 4.7
2017-Aug-13 21:00N 14°27' W 060°55'3 5.5
2017-Aug-13 20:30N 14°24' W 060°57'  

Dump ship's entire track history